Clairton, PA (15025)

10:25 AM EDT on August 21, 2014 (GMT -0400)
Jefferson Hills | Change Station
CLOSE
Current Station
Personal Weather Station
Location: Clairton, PA
Elevation: 919 ft
Nearby Weather Stations

Elev 919 ft 40.29 °N, 79.91 °W | Updated 8 seconds ago

Overcast
Overcast
73.9 °F
Feels Like 76 °F
N
0.0
Wind Variable Wind from SSE
Gusts 0.0 mph

Today
High -- | Low -- °F
--% Chance of Precip.
Yesterday
High -- | Low -- °F
Precip. -- in
6:36 AM 8:08 PM
Waning Crescent, 14% visible
Pressure 30.05 in
Visibility 7.0 miles
Clouds Overcast 600 ft
Heat Index 76 °F
Dew Point 62 °F
Humidity 66%
Rainfall 0.00 in
Snow Depth Not available.
UV 2.0 out of 12
Pollen 9.30 out of 12
Ozone Good
PM2.5 Moderate
Flu Activity Not available.
METAR KAGC 211353Z 20006KT 7SM OVC006 22/19 A3006 RMK AO2 SLP176 T02220194

More Conditions Fewer Conditions

Pressure 30.05 in
Visibility 7.0 miles
Clouds Overcast 600 ft
Heat Index 76 °F
Dew Point 62 °F
Humidity 66%
Rainfall 0.00 in
Snow Depth Not available.
UV 2.0 out of 12
Pollen 9.30 out of 12
Ozone Good
PM2.5 Moderate
Flu Activity Not available.
METAR KAGC 211353Z 20006KT 7SM OVC006 22/19 A3006 RMK AO2 SLP176 T02220194

More Conditions Fewer Conditions

10-Day Weather Forecast

Almanac

Astronomy

Aug. 21, 2014 Rise Set
Actual Time 6:36 AM EDT 8:08 PM EDT
Civil Twilight 6:07 AM EDT 8:36 PM EDT
Nautical Twilight 5:33 AM EDT 9:11 PM EDT
Astronomical Twilight 4:56 AM EDT 9:47 PM EDT
Moon 3:05 AM EDT 5:36 PM EDT
Length of Visible Light 14h 29m
Length of Day
13h 31m
Tomorrow will be 2m 26s shorter.
Waning Crescent, 14% of the Moon is Illuminated
Today
Waning Crescent
Aug 25
New
Sep 2
First Quarter
Sep 8
Full
Sep 15
Last Quarter

Today's Extremes

State Highs State Lows

Community

WunderPhotos

Upload Photos

1,745,920 photos uploaded!

WunderBlogs® & News

By Dr. Jeff Masters
Director of Meteorology, Weather Underground
By Kari Strenfel
Meteorologist, Weather Underground
By Christopher C. Burt
Weather Historian, Weather Underground
August 21, 2014
August 21, 2014
August 21, 2014

Nearby

Air Quality

  Air Quality AQ Index Pollutant
Yesterday Good
PM2.5
Yesterday Good
OZONE
Current Moderate
PM2.5
Current Good
OZONE
Thursday Good
PM2.5
Thursday Good
OZONE
Friday Good
PM2.5
Friday Good
OZONE

Snow Depth

Station Depth Elevation
No new snow has been reported.

Earthquake Activity

City Distance Mag. Time & Date
No recent earthquake activity has been reported nearby.
Minimum magnitude displayed is 2.5.

Coastal Water Temperatures

Place Temperature
No Stations Reporting

Nearby Weather Stations